createdAt,value
2018-01-18T01:38:53.239Z,2.41
2018-01-18T01:38:53.812Z,2.37
2018-01-18T01:38:54.410Z,2.45
2018-01-18T01:38:55.009Z,2.44
2018-01-18T01:38:55.608Z,2.44
2018-01-18T01:38:56.213Z,2.44
2018-01-18T01:38:56.809Z,2.45
2018-01-18T01:39:50.865Z,2.41
2018-01-18T01:39:51.461Z,2.45
2018-01-18T01:39:52.063Z,2.41
2018-01-18T01:39:52.663Z,2.51
2018-01-18T01:39:53.260Z,2.48
2018-01-18T01:39:53.861Z,2.35
2018-01-18T01:39:54.461Z,2.30
2018-01-18T01:40:48.518Z,2.31
2018-01-18T01:40:49.115Z,2.48
2018-01-18T01:40:49.713Z,2.52
2018-01-18T01:40:50.314Z,2.28
2018-01-18T01:40:50.914Z,2.52
2018-01-18T01:40:51.514Z,2.53
2018-01-18T01:40:52.117Z,2.41
2018-01-18T01:41:46.172Z,2.40
2018-01-18T01:41:46.767Z,2.44
2018-01-18T01:41:47.367Z,2.41
2018-01-18T01:41:47.965Z,2.40
2018-01-18T01:41:48.566Z,2.38
2018-01-18T01:41:49.166Z,2.34
2018-01-18T01:41:49.766Z,2.45
2018-01-18T01:42:43.848Z,2.45
2018-01-18T01:42:44.418Z,2.48
2018-01-18T01:42:45.019Z,2.49
2018-01-18T01:42:45.622Z,2.41
2018-01-18T01:42:46.218Z,2.44
2018-01-18T01:42:46.817Z,2.40
2018-01-18T01:42:47.417Z,2.48
2018-01-18T01:43:41.474Z,2.46
2018-01-18T01:43:42.115Z,2.41
2018-01-18T01:43:42.671Z,2.40
2018-01-18T01:43:43.270Z,2.45
2018-01-18T01:43:43.869Z,2.33
2018-01-18T01:43:44.468Z,2.52
2018-01-18T01:43:45.070Z,2.46
2018-01-18T01:44:39.126Z,2.34
2018-01-18T01:44:39.723Z,2.41
2018-01-18T01:44:40.322Z,2.33
2018-01-18T01:44:40.923Z,2.33
2018-01-18T01:44:41.523Z,2.35
2018-01-18T01:44:42.122Z,2.37
2018-01-18T01:44:42.722Z,2.41
2018-01-18T01:45:36.779Z,2.35
2018-01-18T01:45:37.374Z,2.41
2018-01-18T01:45:37.974Z,2.38
2018-01-18T01:45:38.575Z,2.41
2018-01-18T01:45:39.174Z,2.38
2018-01-18T01:45:39.774Z,2.38
2018-01-18T01:45:40.373Z,2.34
2018-01-18T01:46:34.428Z,2.40
2018-01-18T01:46:35.026Z,2.37
2018-01-18T01:46:35.625Z,2.45
2018-01-18T01:46:36.226Z,2.45
2018-01-18T01:46:36.825Z,2.38
2018-01-18T01:46:37.426Z,2.38
2018-01-18T01:46:38.024Z,2.41
2018-01-18T01:47:32.113Z,2.45
2018-01-18T01:47:32.679Z,2.49
2018-01-18T01:47:33.278Z,2.37
2018-01-18T01:47:33.878Z,2.41
2018-01-18T01:47:34.478Z,2.41
2018-01-18T01:47:35.076Z,2.55
2018-01-18T01:47:35.678Z,2.35
2018-01-18T01:48:29.732Z,2.46
2018-01-18T01:48:30.331Z,2.44
2018-01-18T01:48:30.931Z,2.38
2018-01-18T01:48:31.529Z,2.37
2018-01-18T01:48:32.130Z,2.41
2018-01-18T01:48:32.729Z,2.38
2018-01-18T01:48:33.328Z,2.46
2018-01-18T01:49:27.386Z,2.41
2018-01-18T01:49:27.982Z,2.40
2018-01-18T01:49:28.582Z,2.40
2018-01-18T01:49:29.181Z,2.49
2018-01-18T01:49:29.786Z,2.51
2018-01-18T01:49:30.380Z,2.46
2018-01-18T01:49:30.979Z,2.45
2018-01-18T01:50:25.039Z,2.38
2018-01-18T01:50:25.634Z,2.48
2018-01-18T01:50:26.234Z,2.45
2018-01-18T01:50:26.845Z,2.49
2018-01-18T01:50:27.434Z,2.48
2018-01-18T01:50:28.033Z,2.45
2018-01-18T01:50:28.633Z,2.49
2018-01-18T01:51:22.688Z,2.58
2018-01-18T01:51:23.284Z,2.48
2018-01-18T01:51:23.885Z,2.55
2018-01-18T01:51:24.485Z,2.53
2018-01-18T01:51:25.088Z,2.59
2018-01-18T01:51:25.684Z,2.55
2018-01-18T01:51:26.285Z,2.51
2018-01-18T01:52:19.829Z,2.53
2018-01-18T01:52:20.427Z,2.55
2018-01-18T01:52:21.026Z,2.61
2018-01-18T01:52:21.627Z,2.59
2018-01-18T01:52:22.226Z,2.53
2018-01-18T01:52:22.826Z,2.53
2018-01-18T01:52:23.426Z,2.52
2018-01-18T01:52:24.024Z,2.55
2018-01-18T01:53:18.025Z,2.49
2018-01-18T01:53:18.598Z,2.53
2018-01-18T01:53:19.189Z,2.59
2018-01-18T01:53:19.791Z,2.59
2018-01-18T01:53:20.391Z,2.61
2018-01-18T01:53:20.987Z,2.51
2018-01-18T01:53:21.588Z,2.64
2018-01-18T01:54:35.612Z,2.51
2018-01-18T01:54:36.209Z,2.58
2018-01-18T01:54:36.808Z,2.59
2018-01-18T01:54:37.412Z,2.49
2018-01-18T01:54:38.008Z,2.55
2018-01-18T01:54:38.607Z,2.56
2018-01-18T01:54:39.206Z,2.59
2018-01-18T01:55:33.265Z,2.53
2018-01-18T01:55:33.862Z,2.53
2018-01-18T01:55:34.459Z,2.55
2018-01-18T01:55:35.065Z,2.64
2018-01-18T01:55:35.660Z,2.61
2018-01-18T01:55:36.260Z,2.59
2018-01-18T01:55:36.860Z,2.59
2018-01-18T01:56:30.915Z,2.66
2018-01-18T01:56:31.513Z,2.66
2018-01-18T01:56:32.113Z,2.64
2018-01-18T01:56:32.716Z,2.66
2018-01-18T01:56:33.312Z,2.69
2018-01-18T01:56:33.914Z,2.66
2018-01-18T01:56:34.513Z,2.63
2018-01-18T01:57:28.568Z,2.66
2018-01-18T01:57:29.165Z,2.67
2018-01-18T01:57:29.763Z,2.70
2018-01-18T01:57:30.366Z,2.66
2018-01-18T01:57:30.963Z,2.66
2018-01-18T01:57:31.565Z,2.66
2018-01-18T01:57:32.163Z,2.66
2018-01-18T01:58:26.254Z,2.73
2018-01-18T01:58:26.816Z,2.76
2018-01-18T01:58:27.415Z,2.73
2018-01-18T01:58:28.020Z,2.74
2018-01-18T01:58:28.616Z,2.73
2018-01-18T01:58:29.214Z,2.76
2018-01-18T01:58:29.816Z,2.74
2018-01-18T01:59:23.871Z,2.69
2018-01-18T01:59:24.467Z,2.70
2018-01-18T01:59:25.066Z,2.76
2018-01-18T01:59:25.670Z,2.70
2018-01-18T01:59:26.266Z,2.73
2018-01-18T01:59:26.866Z,2.77
2018-01-18T01:59:27.467Z,2.73
2018-01-18T02:00:21.526Z,2.71
2018-01-18T02:00:22.119Z,2.70
2018-01-18T02:00:22.719Z,2.81
2018-01-18T02:00:23.320Z,2.70
2018-01-18T02:00:23.916Z,2.71
2018-01-18T02:00:24.517Z,2.70
2018-01-18T02:00:25.118Z,2.73
2018-01-18T02:01:19.174Z,2.82
2018-01-18T02:01:19.771Z,2.71
2018-01-18T02:01:20.369Z,2.71
2018-01-18T02:01:20.972Z,2.81
2018-01-18T02:01:21.570Z,2.71
2018-01-18T02:01:22.170Z,2.82
2018-01-18T02:01:22.770Z,2.81
2018-01-18T02:02:16.315Z,2.84
2018-01-18T02:02:16.913Z,2.84
2018-01-18T02:02:17.511Z,2.77
2018-01-18T02:02:18.112Z,2.84
2018-01-18T02:02:18.713Z,2.81
2018-01-18T02:02:19.312Z,2.81
2018-01-18T02:02:19.910Z,2.79
2018-01-18T02:02:20.513Z,2.81
2018-01-18T02:03:14.477Z,2.77
2018-01-18T02:03:15.074Z,2.82
2018-01-18T02:03:15.674Z,2.76
2018-01-18T02:03:16.277Z,2.81
2018-01-18T02:03:16.872Z,2.89
2018-01-18T02:03:17.472Z,2.84
2018-01-18T02:03:18.073Z,2.81
2018-01-18T02:04:32.122Z,2.82
2018-01-18T02:04:32.693Z,2.79
2018-01-18T02:04:33.294Z,2.81
2018-01-18T02:04:33.896Z,2.87
2018-01-18T02:04:34.495Z,2.82
2018-01-18T02:04:35.093Z,2.81
2018-01-18T02:04:35.693Z,2.74
2018-01-18T02:05:29.749Z,2.87
2018-01-18T02:05:30.346Z,2.85
2018-01-18T02:05:30.945Z,2.77
2018-01-18T02:05:31.549Z,2.81
2018-01-18T02:05:32.147Z,2.79
2018-01-18T02:05:32.747Z,2.81
2018-01-18T02:05:33.346Z,2.81
2018-01-18T02:06:27.400Z,2.85
2018-01-18T02:06:27.999Z,2.94
2018-01-18T02:06:28.598Z,2.91
2018-01-18T02:06:29.199Z,2.94
2018-01-18T02:06:29.796Z,2.95
2018-01-18T02:06:30.396Z,2.95
2018-01-18T02:06:30.999Z,2.85
2018-01-18T02:07:25.054Z,2.89
2018-01-18T02:07:25.649Z,2.92
2018-01-18T02:07:26.248Z,2.91
2018-01-18T02:07:26.850Z,2.89
2018-01-18T02:07:27.448Z,2.92
2018-01-18T02:07:28.048Z,2.88
2018-01-18T02:07:28.648Z,2.89
2018-01-18T02:08:22.704Z,2.97
2018-01-18T02:08:23.301Z,3.03
2018-01-18T02:08:23.900Z,3.07
2018-01-18T02:08:24.501Z,3.06
2018-01-18T02:08:25.100Z,3.02
2018-01-18T02:08:25.701Z,3.05
2018-01-18T02:08:26.300Z,3.12
2018-01-18T02:09:20.387Z,3.02
2018-01-18T02:09:20.952Z,3.02
2018-01-18T02:09:21.551Z,3.05
2018-01-18T02:09:22.154Z,3.05
2018-01-18T02:09:22.752Z,3.05
2018-01-18T02:09:23.357Z,3.05
2018-01-18T02:09:23.951Z,3.06
2018-01-18T02:10:18.007Z,3.02
2018-01-18T02:10:18.603Z,3.07
2018-01-18T02:10:19.203Z,3.09
2018-01-18T02:10:19.806Z,3.10
2018-01-18T02:10:20.403Z,3.09
2018-01-18T02:10:21.005Z,3.07
2018-01-18T02:10:21.605Z,3.02
2018-01-18T02:11:15.658Z,3.13
2018-01-18T02:11:16.260Z,3.05
2018-01-18T02:11:16.855Z,3.13
2018-01-18T02:11:17.457Z,3.13
2018-01-18T02:11:18.055Z,3.15
2018-01-18T02:11:18.659Z,3.15
2018-01-18T02:11:19.254Z,3.12
2018-01-18T02:12:13.311Z,3.09
2018-01-18T02:12:13.910Z,3.10
2018-01-18T02:12:14.505Z,3.10
2018-01-18T02:12:15.108Z,3.09
2018-01-18T02:12:15.706Z,3.10
2018-01-18T02:12:16.305Z,3.00
2018-01-18T02:12:16.906Z,3.12
2018-01-18T02:13:10.962Z,3.18
2018-01-18T02:13:11.559Z,3.13
2018-01-18T02:13:12.160Z,3.13
2018-01-18T02:13:12.760Z,3.18
2018-01-18T02:13:13.360Z,3.12
2018-01-18T02:13:13.958Z,3.12
2018-01-18T02:13:14.559Z,3.13
2018-01-18T02:14:08.623Z,3.16
2018-01-18T02:14:09.214Z,3.15
2018-01-18T02:14:09.813Z,3.18
2018-01-18T02:14:10.413Z,3.16
2018-01-18T02:14:11.012Z,3.16
2018-01-18T02:14:11.612Z,3.20
2018-01-18T02:14:12.212Z,3.13
2018-01-18T02:15:06.292Z,3.20
2018-01-18T02:15:06.863Z,3.21
2018-01-18T02:15:07.463Z,3.21
2018-01-18T02:15:08.063Z,3.23
2018-01-18T02:15:08.662Z,3.20
2018-01-18T02:15:09.261Z,3.16
2018-01-18T02:15:09.861Z,3.16
2018-01-18T02:16:03.919Z,3.18
2018-01-18T02:16:04.514Z,3.20
2018-01-18T02:16:05.114Z,3.23
2018-01-18T02:16:05.717Z,3.20
2018-01-18T02:16:06.315Z,3.25
2018-01-18T02:16:06.914Z,3.21
2018-01-18T02:16:07.514Z,3.21
2018-01-18T02:17:01.568Z,3.15
2018-01-18T02:17:02.175Z,3.20
2018-01-18T02:17:02.766Z,3.20
2018-01-18T02:17:03.369Z,3.23
2018-01-18T02:17:03.968Z,3.24
2018-01-18T02:17:04.563Z,3.21
2018-01-18T02:17:05.167Z,3.21
2018-01-18T02:17:59.219Z,3.16
2018-01-18T02:17:59.816Z,3.24
2018-01-18T02:18:00.416Z,3.20
2018-01-18T02:18:01.018Z,3.24
2018-01-18T02:18:01.616Z,3.16
2018-01-18T02:18:02.219Z,3.18
2018-01-18T02:18:02.817Z,3.18
2018-01-18T02:18:56.873Z,3.16
2018-01-18T02:18:57.469Z,3.18
2018-01-18T02:18:58.068Z,3.18
2018-01-18T02:18:58.670Z,3.18
2018-01-18T02:18:59.268Z,3.24
2018-01-18T02:18:59.868Z,3.24
2018-01-18T02:19:00.468Z,3.20
2018-01-18T02:19:54.558Z,3.20
2018-01-18T02:19:55.120Z,3.24
2018-01-18T02:19:55.720Z,3.23
2018-01-18T02:19:56.321Z,3.23
2018-01-18T02:19:56.920Z,3.24
2018-01-18T02:19:57.520Z,3.20
2018-01-18T02:19:58.119Z,3.24
2018-01-18T02:20:52.175Z,3.16
2018-01-18T02:20:52.772Z,3.24
2018-01-18T02:20:53.373Z,3.15
2018-01-18T02:20:53.973Z,3.21
2018-01-18T02:20:54.571Z,3.20
2018-01-18T02:20:55.171Z,3.27
2018-01-18T02:20:55.771Z,3.21
2018-01-18T02:21:49.825Z,3.18
2018-01-18T02:21:50.424Z,3.27
2018-01-18T02:21:51.031Z,3.21
2018-01-18T02:21:51.624Z,3.25
2018-01-18T02:21:52.226Z,3.24
2018-01-18T02:21:52.829Z,3.16
2018-01-18T02:21:53.424Z,3.23
2018-01-18T02:22:47.479Z,3.27
2018-01-18T02:22:48.075Z,3.25
2018-01-18T02:22:48.686Z,3.24
2018-01-18T02:22:49.277Z,3.31
2018-01-18T02:22:49.875Z,3.24
2018-01-18T02:22:50.478Z,3.25
2018-01-18T02:22:51.075Z,3.30
2018-01-18T02:23:45.131Z,3.28
2018-01-18T02:23:45.728Z,3.24
2018-01-18T02:23:46.326Z,3.30
2018-01-18T02:23:46.928Z,3.30
2018-01-18T02:23:47.527Z,3.21
2018-01-18T02:23:48.127Z,3.21
2018-01-18T02:23:48.731Z,3.24
2018-01-18T02:24:42.782Z,3.30
2018-01-18T02:24:43.378Z,3.24
2018-01-18T02:24:43.977Z,3.25
2018-01-18T02:24:44.579Z,3.21
2018-01-18T02:24:45.178Z,3.30
2018-01-18T02:24:45.777Z,3.27
2018-01-18T02:24:46.377Z,3.30
2018-01-18T02:25:40.468Z,3.27
2018-01-18T02:25:41.030Z,3.23
2018-01-18T02:25:41.630Z,3.27
2018-01-18T02:25:42.231Z,3.34
2018-01-18T02:25:42.830Z,3.27
2018-01-18T02:25:43.432Z,3.25
2018-01-18T02:25:44.031Z,3.27
2018-01-18T02:26:38.087Z,3.25
2018-01-18T02:26:38.683Z,3.21
2018-01-18T02:26:39.282Z,3.24
2018-01-18T02:26:39.883Z,3.28
2018-01-18T02:26:40.483Z,3.24
2018-01-18T02:26:41.084Z,3.30
2018-01-18T02:26:41.681Z,3.27
2018-01-18T02:27:35.739Z,3.33
2018-01-18T02:27:36.334Z,3.28
2018-01-18T02:27:36.977Z,3.24
2018-01-18T02:27:37.533Z,3.30
2018-01-18T02:27:38.133Z,3.30
2018-01-18T02:27:38.733Z,3.23
2018-01-18T02:27:39.332Z,3.33
2018-01-18T02:28:33.387Z,3.33
2018-01-18T02:28:33.984Z,3.33
2018-01-18T02:28:34.585Z,3.28
2018-01-18T02:28:35.187Z,3.25
2018-01-18T02:28:35.785Z,3.25
2018-01-18T02:28:36.385Z,3.28
2018-01-18T02:28:36.985Z,3.27
2018-01-18T02:29:31.040Z,3.25
2018-01-18T02:29:31.680Z,3.24
2018-01-18T02:29:32.236Z,3.33
2018-01-18T02:29:32.839Z,3.25
2018-01-18T02:29:33.437Z,3.23
2018-01-18T02:29:34.036Z,3.36
2018-01-18T02:29:34.637Z,3.28
2018-01-18T02:30:28.693Z,3.27
2018-01-18T02:30:29.290Z,3.31
2018-01-18T02:30:29.888Z,3.27
2018-01-18T02:30:30.489Z,3.33
2018-01-18T02:30:31.087Z,3.30
2018-01-18T02:30:31.694Z,3.30
2018-01-18T02:30:32.288Z,3.23
2018-01-18T02:31:26.368Z,3.30
2018-01-18T02:31:26.941Z,3.31
2018-01-18T02:31:27.539Z,3.30
2018-01-18T02:31:28.142Z,3.34
2018-01-18T02:31:28.741Z,3.30
2018-01-18T02:31:29.339Z,3.30
2018-01-18T02:31:29.940Z,3.30
2018-01-18T02:32:23.995Z,3.30
2018-01-18T02:32:24.592Z,3.33
2018-01-18T02:32:25.191Z,3.30
2018-01-18T02:32:25.793Z,3.28
2018-01-18T02:32:26.394Z,3.31
2018-01-18T02:32:26.990Z,3.30
2018-01-18T02:32:27.594Z,3.30
2018-01-18T02:33:21.647Z,3.33
2018-01-18T02:33:22.244Z,3.33
2018-01-18T02:33:22.845Z,3.27
2018-01-18T02:33:23.443Z,3.34
2018-01-18T02:33:24.044Z,3.33
2018-01-18T02:33:24.645Z,3.28
2018-01-18T02:33:25.243Z,3.36
2018-01-18T02:34:19.299Z,3.33
2018-01-18T02:34:19.895Z,3.39
2018-01-18T02:34:20.505Z,3.36
2018-01-18T02:34:21.097Z,3.30
2018-01-18T02:34:21.694Z,3.30
2018-01-18T02:34:22.297Z,3.31
2018-01-18T02:34:22.895Z,3.39
2018-01-18T02:35:16.951Z,3.31
2018-01-18T02:35:17.548Z,3.27
2018-01-18T02:35:18.146Z,3.30
2018-01-18T02:35:18.747Z,3.39
2018-01-18T02:35:19.347Z,3.40
2018-01-18T02:35:19.946Z,3.34
2018-01-18T02:35:20.545Z,3.40
2018-01-18T02:36:14.638Z,3.42
2018-01-18T02:36:15.197Z,3.44
2018-01-18T02:36:15.796Z,3.34
2018-01-18T02:36:16.400Z,3.31
2018-01-18T02:36:16.996Z,3.33
2018-01-18T02:36:17.594Z,3.34
2018-01-18T02:36:18.195Z,3.44
2018-01-18T02:37:12.253Z,3.44
2018-01-18T02:37:12.852Z,3.44
2018-01-18T02:37:13.476Z,3.47
2018-01-18T02:37:14.051Z,3.36
2018-01-18T02:37:14.650Z,3.40
2018-01-18T02:37:15.254Z,3.36
2018-01-18T02:37:15.850Z,3.47
2018-01-18T02:52:39.002Z,3.36
2018-01-18T02:52:39.572Z,3.34
2018-01-18T02:52:40.174Z,3.33
2018-01-18T02:52:40.778Z,3.30
2018-01-18T02:52:41.385Z,3.33
2018-01-18T02:52:41.969Z,3.31
2018-01-18T02:52:42.569Z,3.33
2018-01-18T02:53:36.662Z,3.27
2018-01-18T02:53:37.225Z,3.23
2018-01-18T02:53:37.825Z,3.28
2018-01-18T02:53:38.425Z,3.25
2018-01-18T02:53:39.025Z,3.27
2018-01-18T02:53:39.624Z,3.25
2018-01-18T02:53:40.224Z,3.27
2018-01-18T02:54:34.282Z,3.18
2018-01-18T02:54:34.878Z,3.21
2018-01-18T02:54:35.478Z,3.24
2018-01-18T02:54:36.078Z,3.24
2018-01-18T02:54:36.678Z,3.30
2018-01-18T02:54:37.277Z,3.24
2018-01-18T02:54:37.878Z,3.24
2018-01-18T02:55:31.936Z,3.16
2018-01-18T02:55:32.528Z,3.25
2018-01-18T02:55:33.128Z,3.31
2018-01-18T02:55:33.728Z,3.27
2018-01-18T02:55:34.328Z,3.31
2018-01-18T02:55:34.927Z,3.28
2018-01-18T02:55:35.530Z,3.23
2018-01-18T02:56:29.585Z,3.24
2018-01-18T02:56:30.182Z,3.23
2018-01-18T02:56:30.783Z,3.24
2018-01-18T02:56:31.385Z,3.24
2018-01-18T02:56:31.980Z,3.24
2018-01-18T02:56:32.581Z,3.25
2018-01-18T02:56:33.181Z,3.25
2018-01-18T02:57:27.237Z,3.20
2018-01-18T02:57:27.834Z,3.23
2018-01-18T02:57:28.434Z,3.23
2018-01-18T02:57:29.037Z,3.25
2018-01-18T02:57:29.632Z,3.23
2018-01-18T02:57:30.234Z,3.23
2018-01-18T02:57:30.833Z,3.18
2018-01-18T02:58:24.890Z,3.28
2018-01-18T02:58:25.486Z,3.27
2018-01-18T02:58:26.087Z,3.23
2018-01-18T02:58:26.688Z,3.31
2018-01-18T02:58:27.285Z,3.20
2018-01-18T02:58:27.886Z,3.30
2018-01-18T02:58:28.484Z,3.28
2018-01-18T02:59:22.567Z,3.24
2018-01-18T02:59:23.141Z,3.24
2018-01-18T02:59:23.737Z,3.24
2018-01-18T02:59:24.341Z,3.27
2018-01-18T02:59:24.936Z,3.24
2018-01-18T02:59:25.536Z,3.24
2018-01-18T02:59:26.137Z,3.21
2018-01-18T03:00:20.192Z,3.23
2018-01-18T03:00:20.789Z,3.27
2018-01-18T03:00:21.389Z,3.23
2018-01-18T03:00:21.990Z,3.20
2018-01-18T03:00:22.588Z,3.31
2018-01-18T03:00:23.189Z,3.25
2018-01-18T03:00:23.798Z,3.21
2018-01-18T03:01:17.844Z,3.30
2018-01-18T03:01:18.441Z,3.24
2018-01-18T03:01:19.041Z,3.25
2018-01-18T03:01:19.642Z,3.33
2018-01-18T03:01:20.241Z,3.21
2018-01-18T03:01:20.841Z,3.27
2018-01-18T03:01:21.440Z,3.21
2018-01-18T03:02:15.498Z,3.30
2018-01-18T03:02:16.093Z,3.34
2018-01-18T03:02:16.693Z,3.25
2018-01-18T03:02:17.293Z,3.31
2018-01-18T03:02:17.892Z,3.28
2018-01-18T03:02:18.493Z,3.28
2018-01-18T03:02:19.092Z,3.27
2018-01-18T03:03:13.148Z,3.28
2018-01-18T03:03:13.744Z,3.28
2018-01-18T03:03:14.344Z,3.27
2018-01-18T03:03:14.946Z,3.33
2018-01-18T03:03:15.545Z,3.30
2018-01-18T03:03:16.144Z,3.33
2018-01-18T03:03:16.749Z,3.25
2018-01-18T03:04:10.835Z,3.25
2018-01-18T03:04:11.396Z,3.33
2018-01-18T03:04:11.997Z,3.33
2018-01-18T03:04:12.596Z,3.30
2018-01-18T03:04:13.195Z,3.34
2018-01-18T03:04:13.802Z,3.31
2018-01-18T03:04:14.395Z,3.33
2018-01-18T03:05:08.451Z,3.27
2018-01-18T03:05:09.048Z,3.31
2018-01-18T03:05:09.647Z,3.33
2018-01-18T03:05:10.248Z,3.36
2018-01-18T03:05:10.847Z,3.36
2018-01-18T03:05:11.447Z,3.31
2018-01-18T03:05:12.047Z,3.34
2018-01-18T03:06:06.102Z,3.36
2018-01-18T03:06:06.700Z,3.28
2018-01-18T03:06:07.298Z,3.30
2018-01-18T03:06:07.900Z,3.33
2018-01-18T03:06:08.501Z,3.36
2018-01-18T03:06:09.098Z,3.34
2018-01-18T03:06:09.698Z,3.36
2018-01-18T03:07:03.753Z,3.28
2018-01-18T03:07:04.351Z,3.34
2018-01-18T03:07:04.952Z,3.30
2018-01-18T03:07:05.551Z,3.30
2018-01-18T03:07:06.157Z,3.27
2018-01-18T03:07:06.752Z,3.40
2018-01-18T03:07:07.352Z,3.27
2018-01-18T03:08:00.899Z,3.39
2018-01-18T03:08:01.493Z,3.42
2018-01-18T03:08:02.094Z,3.33
2018-01-18T03:08:02.692Z,3.39
2018-01-18T03:08:03.291Z,3.34
2018-01-18T03:08:03.894Z,3.33
2018-01-18T03:08:04.495Z,3.31
2018-01-18T03:08:05.090Z,3.39
2018-01-18T03:08:59.060Z,3.34
2018-01-18T03:08:59.654Z,3.42
2018-01-18T03:09:00.254Z,3.46
2018-01-18T03:09:00.855Z,3.33
2018-01-18T03:09:01.454Z,3.46
2018-01-18T03:09:02.055Z,3.44
2018-01-18T03:09:02.654Z,3.42
2018-01-18T03:10:16.704Z,3.43
2018-01-18T03:10:17.274Z,3.36
2018-01-18T03:10:17.874Z,3.36
2018-01-18T03:10:18.479Z,3.36
2018-01-18T03:10:19.075Z,3.46
2018-01-18T03:10:19.673Z,3.43
2018-01-18T03:10:20.273Z,3.39
2018-01-18T03:11:14.330Z,3.40
2018-01-18T03:11:14.927Z,3.49
2018-01-18T03:11:15.525Z,3.39
2018-01-18T03:11:16.127Z,3.49
2018-01-18T03:11:16.725Z,3.42
2018-01-18T03:11:17.328Z,3.43
2018-01-18T03:11:17.926Z,3.42
2018-01-18T03:12:11.981Z,3.42
2018-01-18T03:12:12.578Z,3.50
2018-01-18T03:12:13.176Z,3.50
2018-01-18T03:12:13.777Z,3.54
2018-01-18T03:12:14.381Z,3.54
2018-01-18T03:12:14.976Z,3.54
2018-01-18T03:12:15.576Z,3.50
2018-01-18T03:13:09.633Z,3.52
2018-01-18T03:13:10.230Z,3.54
2018-01-18T03:13:10.830Z,3.54
2018-01-18T03:13:11.435Z,3.53
2018-01-18T03:13:12.028Z,3.44
2018-01-18T03:13:12.630Z,3.54
2018-01-18T03:13:13.229Z,3.40
2018-01-18T03:14:07.284Z,3.49
2018-01-18T03:14:07.882Z,3.49
2018-01-18T03:14:08.481Z,3.52
2018-01-18T03:14:09.081Z,3.52
2018-01-18T03:14:09.680Z,3.52
2018-01-18T03:14:10.280Z,3.49
2018-01-18T03:14:10.880Z,3.49
2018-01-18T03:15:04.973Z,3.49
2018-01-18T03:15:05.535Z,3.47
2018-01-18T03:15:06.132Z,3.47
2018-01-18T03:15:06.733Z,3.49
2018-01-18T03:15:07.336Z,3.52
2018-01-18T03:15:07.930Z,3.52
2018-01-18T03:15:08.530Z,3.50
2018-01-18T03:16:02.588Z,3.50
2018-01-18T03:16:03.185Z,3.49
2018-01-18T03:16:03.784Z,3.46
2018-01-18T03:16:04.385Z,3.50
2018-01-18T03:16:04.985Z,3.47
2018-01-18T03:16:05.586Z,3.52
2018-01-18T03:16:06.186Z,3.61
2018-01-18T03:17:00.240Z,3.53
2018-01-18T03:17:00.836Z,3.52
2018-01-18T03:17:01.436Z,3.54
2018-01-18T03:17:02.036Z,3.54
2018-01-18T03:17:02.642Z,3.52
2018-01-18T03:17:03.239Z,3.53
2018-01-18T03:17:03.836Z,3.62
2018-01-18T03:17:57.889Z,3.58
2018-01-18T03:17:58.496Z,3.57
2018-01-18T03:17:59.089Z,3.61
2018-01-18T03:17:59.687Z,3.54
2018-01-18T03:18:00.288Z,3.53
2018-01-18T03:18:00.889Z,3.64
2018-01-18T03:18:01.488Z,3.61
2018-01-18T03:18:55.543Z,3.54
2018-01-18T03:18:56.140Z,3.60
2018-01-18T03:18:56.740Z,3.64
2018-01-18T03:18:57.340Z,3.61
2018-01-18T03:18:57.942Z,3.67
2018-01-18T03:18:58.540Z,3.65
2018-01-18T03:18:59.138Z,3.57
2018-01-18T03:19:53.194Z,3.65
2018-01-18T03:19:53.791Z,3.58
2018-01-18T03:19:54.390Z,3.61
2018-01-18T03:19:54.991Z,3.64
2018-01-18T03:19:55.590Z,3.64
2018-01-18T03:19:56.192Z,3.62
2018-01-18T03:19:56.789Z,3.60
2018-01-18T03:20:50.872Z,3.61
2018-01-18T03:20:51.442Z,3.61
2018-01-18T03:20:52.086Z,3.64
2018-01-18T03:20:52.643Z,3.58
2018-01-18T03:20:53.241Z,3.71
2018-01-18T03:20:53.844Z,3.62
2018-01-18T03:20:54.443Z,3.62
2018-01-18T03:21:48.499Z,3.60
2018-01-18T03:21:49.096Z,3.64
2018-01-18T03:21:49.696Z,3.71
2018-01-18T03:21:50.293Z,3.64
2018-01-18T03:21:50.893Z,3.67
2018-01-18T03:21:51.495Z,3.70
2018-01-18T03:21:52.096Z,3.62
2018-01-18T03:22:46.150Z,3.61
2018-01-18T03:22:46.746Z,3.70
2018-01-18T03:22:47.346Z,3.61
2018-01-18T03:22:47.946Z,3.70
2018-01-18T03:22:48.547Z,3.71
2018-01-18T03:22:49.147Z,3.70
2018-01-18T03:22:49.746Z,3.71
2018-01-18T03:23:43.812Z,3.58
2018-01-18T03:23:44.402Z,3.68
2018-01-18T03:23:44.999Z,3.71
2018-01-18T03:23:45.598Z,3.68
2018-01-18T03:23:46.199Z,3.71
2018-01-18T03:23:46.798Z,3.60
2018-01-18T03:23:47.397Z,3.71
2018-01-18T03:24:41.453Z,3.65
2018-01-18T03:24:42.049Z,3.76
2018-01-18T03:24:42.649Z,3.70
2018-01-18T03:24:43.250Z,3.68
2018-01-18T03:24:43.850Z,3.71
2018-01-18T03:24:44.451Z,3.68
2018-01-18T03:24:45.050Z,3.64
2018-01-18T03:25:39.138Z,3.67
2018-01-18T03:25:39.702Z,3.68
2018-01-18T03:25:40.302Z,3.67
2018-01-18T03:25:40.900Z,3.64
2018-01-18T03:25:41.502Z,3.68
2018-01-18T03:25:42.102Z,3.67
2018-01-18T03:25:42.701Z,3.64
2018-01-18T03:26:36.758Z,3.70
2018-01-18T03:26:37.353Z,3.67
2018-01-18T03:26:37.954Z,3.65
2018-01-18T03:26:38.567Z,3.71
2018-01-18T03:26:39.153Z,3.68
2018-01-18T03:26:39.754Z,3.75
2018-01-18T03:26:40.353Z,3.64
2018-01-18T03:27:34.408Z,3.68
2018-01-18T03:27:35.005Z,3.68
2018-01-18T03:27:35.606Z,3.75
2018-01-18T03:27:36.205Z,3.72
2018-01-18T03:27:36.805Z,3.67
2018-01-18T03:27:37.403Z,3.64
2018-01-18T03:27:38.004Z,3.71
2018-01-18T03:28:32.059Z,3.67
2018-01-18T03:28:32.656Z,3.70
2018-01-18T03:28:33.256Z,3.67
2018-01-18T03:28:33.857Z,3.76
2018-01-18T03:28:34.456Z,3.68
2018-01-18T03:28:35.058Z,3.75
2018-01-18T03:28:35.656Z,3.76
2018-01-18T03:29:29.712Z,3.78
2018-01-18T03:29:30.307Z,3.72
2018-01-18T03:29:30.907Z,3.72
2018-01-18T03:29:31.507Z,3.75
2018-01-18T03:29:32.106Z,3.72
2018-01-18T03:29:32.709Z,3.79
2018-01-18T03:29:33.307Z,3.82
2018-01-18T03:30:27.363Z,3.79
2018-01-18T03:30:27.966Z,3.72
2018-01-18T03:30:28.561Z,3.68
2018-01-18T03:30:29.160Z,3.75
2018-01-18T03:30:29.760Z,3.82
2018-01-18T03:30:30.361Z,3.71
2018-01-18T03:30:30.959Z,3.70
2018-01-18T03:31:25.041Z,3.76
2018-01-18T03:31:25.612Z,3.68
2018-01-18T03:31:26.211Z,3.79
2018-01-18T03:31:26.816Z,3.75
2018-01-18T03:31:27.412Z,3.78
2018-01-18T03:31:28.015Z,3.76
2018-01-18T03:31:28.611Z,3.75
2018-01-18T03:32:22.667Z,3.76
2018-01-18T03:32:23.267Z,3.71
2018-01-18T03:32:23.865Z,3.70
2018-01-18T03:32:24.464Z,3.62
2018-01-18T03:32:25.064Z,3.72
2018-01-18T03:32:25.663Z,3.70
2018-01-18T03:32:26.263Z,3.79
2018-01-18T03:33:20.318Z,3.79
2018-01-18T03:33:20.915Z,3.78
2018-01-18T03:33:21.517Z,3.75
2018-01-18T03:33:22.115Z,3.78
2018-01-18T03:33:22.713Z,3.71
2018-01-18T03:33:23.315Z,3.76
2018-01-18T03:33:23.914Z,3.76
2018-01-18T03:34:17.969Z,3.67
2018-01-18T03:34:18.567Z,3.76
2018-01-18T03:34:19.167Z,3.75
2018-01-18T03:34:19.766Z,3.71
2018-01-18T03:34:20.367Z,3.71
2018-01-18T03:34:20.967Z,3.78
2018-01-18T03:34:21.566Z,3.76
2018-01-18T03:35:15.622Z,3.65
2018-01-18T03:35:16.223Z,3.67
2018-01-18T03:35:16.825Z,3.70
2018-01-18T03:35:17.419Z,3.78
2018-01-18T03:35:18.017Z,3.71
2018-01-18T03:35:18.616Z,3.72
2018-01-18T03:35:19.216Z,3.70
2018-01-18T03:36:13.301Z,3.80
2018-01-18T04:06:59.175Z,3.68
2018-01-18T04:06:59.745Z,3.72
2018-01-18T04:07:00.344Z,3.70
2018-01-18T04:07:00.943Z,3.68
2018-01-18T04:07:01.543Z,3.70
2018-01-18T04:07:02.143Z,3.76
2018-01-18T04:07:02.744Z,3.62
2018-01-18T04:08:16.768Z,3.65
2018-01-18T04:08:17.365Z,3.68
2018-01-18T04:08:17.963Z,3.71
2018-01-18T04:08:18.588Z,3.70
2018-01-18T04:08:19.163Z,3.76
2018-01-18T04:08:19.762Z,3.67
2018-01-18T04:08:20.362Z,3.67
2018-01-18T04:09:14.420Z,3.70
2018-01-18T04:09:15.016Z,3.72
2018-01-18T04:09:15.616Z,3.71
2018-01-18T04:09:16.218Z,3.64
2018-01-18T04:09:16.816Z,3.71
2018-01-18T04:09:17.415Z,3.72
2018-01-18T04:09:18.016Z,3.68
2018-01-18T04:10:12.075Z,3.65
2018-01-18T04:10:12.673Z,3.67
2018-01-18T04:10:13.268Z,3.61
2018-01-18T04:10:13.869Z,3.71
2018-01-18T04:10:14.468Z,3.62
2018-01-18T04:10:15.068Z,3.64
2018-01-18T04:10:15.667Z,3.64
2018-01-18T04:11:09.752Z,3.64
2018-01-18T04:11:10.320Z,3.64
2018-01-18T04:11:10.919Z,3.61
2018-01-18T04:11:11.522Z,3.71
2018-01-18T04:11:12.120Z,3.64
2018-01-18T04:11:12.722Z,3.61
2018-01-18T04:11:13.319Z,3.68
2018-01-18T04:12:07.375Z,3.71
2018-01-18T04:12:07.977Z,3.60
2018-01-18T04:12:08.573Z,3.65
2018-01-18T04:12:09.173Z,3.61
2018-01-18T04:12:09.771Z,3.72
2018-01-18T04:12:10.370Z,3.61
2018-01-18T04:12:10.972Z,3.64
2018-01-18T04:13:05.027Z,3.60
2018-01-18T04:13:05.625Z,3.61
2018-01-18T04:13:06.224Z,3.61
2018-01-18T04:13:06.824Z,3.71
2018-01-18T04:13:07.424Z,3.65
2018-01-18T04:13:08.026Z,3.54
2018-01-18T04:13:08.624Z,3.62
2018-01-18T04:14:02.679Z,3.62
2018-01-18T04:14:03.278Z,3.71
2018-01-18T04:14:03.876Z,3.70
2018-01-18T04:14:04.476Z,3.61